sensor_id;sensor_type;location;lat;lon;timestamp;pressure;altitude;pressure_sealevel;temperature;humidity
57068;BME280;43391;47.448;18.904;2023-11-21T00:05:52;99220.91;;;2.71;100.00
57068;BME280;43391;47.448;18.904;2023-11-21T00:14:13;99202.94;;;2.72;100.00
57068;BME280;43391;47.448;18.904;2023-11-21T00:22:35;99217.63;;;2.65;100.00
57068;BME280;43391;47.448;18.904;2023-11-21T00:30:55;99232.22;;;2.62;100.00
57068;BME280;43391;47.448;18.904;2023-11-21T00:39:15;99234.09;;;2.55;100.00
57068;BME280;43391;47.448;18.904;2023-11-21T00:47:36;99251.91;;;2.61;100.00
57068;BME280;43391;47.448;18.904;2023-11-21T00:55:57;99244.28;;;2.58;100.00
57068;BME280;43391;47.448;18.904;2023-11-21T01:04:17;99233.84;;;2.28;100.00
57068;BME280;43391;47.448;18.904;2023-11-21T01:12:38;99231.34;;;2.27;100.00
57068;BME280;43391;47.448;18.904;2023-11-21T01:20:58;99231.28;;;2.28;100.00
57068;BME280;43391;47.448;18.904;2023-11-21T01:29:20;99228.13;;;2.17;100.00
57068;BME280;43391;47.448;18.904;2023-11-21T01:37:40;99210.75;;;2.30;100.00
57068;BME280;43391;47.448;18.904;2023-11-21T01:46:00;99206.97;;;2.46;100.00
57068;BME280;43391;47.448;18.904;2023-11-21T01:54:21;99197.19;;;2.64;100.00
57068;BME280;43391;47.448;18.904;2023-11-21T02:02:47;99185.09;;;2.69;100.00
57068;BME280;43391;47.448;18.904;2023-11-21T02:11:08;99178.34;;;2.65;100.00
57068;BME280;43391;47.448;18.904;2023-11-21T02:19:29;99180.06;;;2.64;100.00
57068;BME280;43391;47.448;18.904;2023-11-21T02:27:50;99168.66;;;2.76;100.00
57068;BME280;43391;47.448;18.904;2023-11-21T02:36:11;99155.59;;;2.87;100.00
57068;BME280;43391;47.448;18.904;2023-11-21T02:44:31;99158.09;;;2.89;100.00
57068;BME280;43391;47.448;18.904;2023-11-21T02:52:51;99150.97;;;3.00;100.00
57068;BME280;43391;47.448;18.904;2023-11-21T03:01:11;99144.31;;;2.93;100.00
57068;BME280;43391;47.448;18.904;2023-11-21T03:09:32;99139.47;;;2.82;100.00
57068;BME280;43391;47.448;18.904;2023-11-21T03:17:53;99132.53;;;2.86;100.00
57068;BME280;43391;47.448;18.904;2023-11-21T03:26:13;99112.25;;;2.78;100.00
57068;BME280;43391;47.448;18.904;2023-11-21T03:34:33;99103.59;;;2.82;100.00
57068;BME280;43391;47.448;18.904;2023-11-21T03:42:54;99101.81;;;2.84;100.00
57068;BME280;43391;47.448;18.904;2023-11-21T03:51:14;99117.28;;;2.81;100.00
57068;BME280;43391;47.448;18.904;2023-11-21T03:59:34;99124.00;;;2.85;100.00
57068;BME280;43391;47.448;18.904;2023-11-21T04:07:54;99124.66;;;2.94;100.00
57068;BME280;43391;47.448;18.904;2023-11-21T04:16:15;99139.72;;;3.04;100.00
57068;BME280;43391;47.448;18.904;2023-11-21T04:24:35;99139.03;;;2.99;100.00
57068;BME280;43391;47.448;18.904;2023-11-21T04:32:55;99136.41;;;3.01;100.00
57068;BME280;43391;47.448;18.904;2023-11-21T04:41:15;99153.59;;;2.99;100.00
57068;BME280;43391;47.448;18.904;2023-11-21T04:49:36;99168.25;;;2.94;100.00
57068;BME280;43391;47.448;18.904;2023-11-21T04:57:56;99179.75;;;3.12;100.00
57068;BME280;43391;47.448;18.904;2023-11-21T05:06:16;99179.16;;;3.34;100.00
57068;BME280;43391;47.448;18.904;2023-11-21T05:14:36;99176.69;;;3.29;100.00
57068;BME280;43391;47.448;18.904;2023-11-21T05:22:57;99165.22;;;3.42;100.00
57068;BME280;43391;47.448;18.904;2023-11-21T05:31:18;99184.84;;;3.45;100.00
57068;BME280;43391;47.448;18.904;2023-11-21T05:39:39;99171.56;;;3.61;100.00
57068;BME280;43391;47.448;18.904;2023-11-21T05:47:59;99187.00;;;3.59;100.00
57068;BME280;43391;47.448;18.904;2023-11-21T05:56:19;99191.19;;;3.63;100.00
57068;BME280;43391;47.448;18.904;2023-11-21T06:04:40;99197.28;;;3.59;100.00
57068;BME280;43391;47.448;18.904;2023-11-21T06:13:00;99219.84;;;3.79;100.00
57068;BME280;43391;47.448;18.904;2023-11-21T06:21:20;99235.69;;;3.92;100.00
57068;BME280;43391;47.448;18.904;2023-11-21T06:29:40;99259.88;;;3.85;100.00
57068;BME280;43391;47.448;18.904;2023-11-21T06:38:02;99269.72;;;4.01;100.00
57068;BME280;43391;47.448;18.904;2023-11-21T06:46:22;99273.88;;;4.05;100.00
57068;BME280;43391;47.448;18.904;2023-11-21T06:54:43;99271.06;;;4.14;100.00
57068;BME280;43391;47.448;18.904;2023-11-21T07:03:03;99277.00;;;4.45;100.00
57068;BME280;43391;47.448;18.904;2023-11-21T07:11:23;99287.25;;;4.46;100.00
57068;BME280;43391;47.448;18.904;2023-11-21T07:19:43;99281.97;;;4.51;100.00
57068;BME280;43391;47.448;18.904;2023-11-21T07:28:03;99282.97;;;4.74;100.00
57068;BME280;43391;47.448;18.904;2023-11-21T07:36:25;99285.38;;;5.07;100.00
57068;BME280;43391;47.448;18.904;2023-11-21T07:44:45;99278.84;;;5.22;100.00
57068;BME280;43391;47.448;18.904;2023-11-21T07:53:06;99283.69;;;5.31;100.00
57068;BME280;43391;47.448;18.904;2023-11-21T08:01:26;99283.06;;;5.50;100.00
57068;BME280;43391;47.448;18.904;2023-11-21T08:09:48;99285.06;;;5.67;100.00
57068;BME280;43391;47.448;18.904;2023-11-21T08:18:10;99280.31;;;5.80;100.00
57068;BME280;43391;47.448;18.904;2023-11-21T08:26:30;99273.69;;;5.97;100.00
57068;BME280;43391;47.448;18.904;2023-11-21T08:34:50;99267.09;;;6.14;100.00
57068;BME280;43391;47.448;18.904;2023-11-21T08:43:10;99265.13;;;6.20;100.00
57068;BME280;43391;47.448;18.904;2023-11-21T08:51:32;99277.06;;;6.23;100.00
57068;BME280;43391;47.448;18.904;2023-11-21T08:59:52;99283.69;;;6.30;100.00
57068;BME280;43391;47.448;18.904;2023-11-21T09:08:15;99288.00;;;6.30;100.00
57068;BME280;43391;47.448;18.904;2023-11-21T09:16:36;99281.91;;;6.55;100.00
57068;BME280;43391;47.448;18.904;2023-11-21T09:24:56;99274.34;;;6.72;100.00
57068;BME280;43391;47.448;18.904;2023-11-21T09:33:17;99263.22;;;6.93;100.00
57068;BME280;43391;47.448;18.904;2023-11-21T09:41:59;99244.91;;;6.99;100.00
57068;BME280;43391;47.448;18.904;2023-11-21T09:50:18;99241.16;;;7.27;100.00
57068;BME280;43391;47.448;18.904;2023-11-21T09:58:41;99232.50;;;7.28;100.00
57068;BME280;43391;47.448;18.904;2023-11-21T10:07:01;99227.59;;;7.42;100.00
57068;BME280;43391;47.448;18.904;2023-11-21T10:15:23;99222.03;;;7.52;100.00
57068;BME280;43391;47.448;18.904;2023-11-21T10:23:45;99223.31;;;7.62;100.00
57068;BME280;43391;47.448;18.904;2023-11-21T10:32:06;99223.84;;;7.69;100.00
57068;BME280;43391;47.448;18.904;2023-11-21T10:40:27;99222.69;;;7.76;100.00
57068;BME280;43391;47.448;18.904;2023-11-21T10:48:51;99220.94;;;7.77;100.00
57068;BME280;43391;47.448;18.904;2023-11-21T10:57:12;99223.44;;;7.97;100.00
57068;BME280;43391;47.448;18.904;2023-11-21T11:05:35;99211.16;;;8.03;100.00
57068;BME280;43391;47.448;18.904;2023-11-21T11:13:55;99211.16;;;8.03;100.00
57068;BME280;43391;47.448;18.904;2023-11-21T11:39:01;99196.22;;;8.46;100.00
57068;BME280;43391;47.448;18.904;2023-11-21T11:47:26;99187.34;;;8.52;100.00
57068;BME280;43391;47.448;18.904;2023-11-21T11:55:48;99175.94;;;8.74;100.00
57068;BME280;43391;47.448;18.904;2023-11-21T12:12:49;99174.19;;;8.74;100.00
57068;BME280;43391;47.448;18.904;2023-11-21T12:21:09;99183.09;;;8.86;100.00
57068;BME280;43391;47.448;18.904;2023-11-21T12:29:30;99166.50;;;8.90;100.00
57068;BME280;43391;47.448;18.904;2023-11-21T12:37:51;99160.34;;;8.93;100.00
57068;BME280;43391;47.448;18.904;2023-11-21T12:46:12;99159.94;;;8.83;100.00
57068;BME280;43391;47.448;18.904;2023-11-21T12:54:33;99147.47;;;8.74;100.00
57068;BME280;43391;47.448;18.904;2023-11-21T13:02:55;99161.25;;;8.74;100.00
57068;BME280;43391;47.448;18.904;2023-11-21T13:11:19;99160.56;;;8.71;100.00
57068;BME280;43391;47.448;18.904;2023-11-21T13:19:39;99148.06;;;8.79;100.00
57068;BME280;43391;47.448;18.904;2023-11-21T13:28:00;99148.25;;;8.76;100.00
57068;BME280;43391;47.448;18.904;2023-11-21T13:36:23;99157.81;;;8.74;100.00
57068;BME280;43391;47.448;18.904;2023-11-21T13:44:43;99151.75;;;8.75;100.00
57068;BME280;43391;47.448;18.904;2023-11-21T13:53:06;99158.88;;;8.87;100.00
57068;BME280;43391;47.448;18.904;2023-11-21T14:01:37;99160.41;;;8.56;100.00
57068;BME280;43391;47.448;18.904;2023-11-21T14:10:12;99166.50;;;8.55;100.00
57068;BME280;43391;47.448;18.904;2023-11-21T14:18:34;99175.53;;;8.46;100.00
57068;BME280;43391;47.448;18.904;2023-11-21T14:26:58;99178.38;;;8.40;100.00
57068;BME280;43391;47.448;18.904;2023-11-21T14:35:19;99179.47;;;8.36;100.00
57068;BME280;43391;47.448;18.904;2023-11-21T14:43:39;99178.53;;;8.19;100.00
57068;BME280;43391;47.448;18.904;2023-11-21T14:52:00;99182.38;;;7.91;100.00
57068;BME280;43391;47.448;18.904;2023-11-21T15:00:22;99196.69;;;7.79;100.00
57068;BME280;43391;47.448;18.904;2023-11-21T15:08:55;99194.53;;;7.51;100.00
57068;BME280;43391;47.448;18.904;2023-11-21T15:17:36;99191.09;;;7.31;100.00
57068;BME280;43391;47.448;18.904;2023-11-21T15:25:57;99194.25;;;7.17;100.00
57068;BME280;43391;47.448;18.904;2023-11-21T15:34:17;99185.63;;;6.97;100.00
57068;BME280;43391;47.448;18.904;2023-11-21T15:42:37;99193.22;;;6.59;100.00
57068;BME280;43391;47.448;18.904;2023-11-21T15:50:59;99191.06;;;6.48;100.00
57068;BME280;43391;47.448;18.904;2023-11-21T15:59:20;99187.47;;;6.30;100.00
57068;BME280;43391;47.448;18.904;2023-11-21T16:07:44;99192.38;;;6.14;100.00
57068;BME280;43391;47.448;18.904;2023-11-21T16:16:04;99210.25;;;6.18;100.00
57068;BME280;43391;47.448;18.904;2023-11-21T16:24:25;99213.22;;;5.83;100.00
57068;BME280;43391;47.448;18.904;2023-11-21T16:32:47;99199.25;;;5.67;100.00
57068;BME280;43391;47.448;18.904;2023-11-21T16:41:07;99216.59;;;5.62;100.00
57068;BME280;43391;47.448;18.904;2023-11-21T16:49:29;99208.25;;;5.55;100.00
57068;BME280;43391;47.448;18.904;2023-11-21T16:57:51;99215.03;;;5.57;100.00
57068;BME280;43391;47.448;18.904;2023-11-21T17:06:12;99208.75;;;5.41;100.00
57068;BME280;43391;47.448;18.904;2023-11-21T17:14:32;99223.28;;;5.42;100.00
57068;BME280;43391;47.448;18.904;2023-11-21T17:22:53;99231.16;;;5.37;100.00
57068;BME280;43391;47.448;18.904;2023-11-21T17:31:15;99226.19;;;5.32;100.00
57068;BME280;43391;47.448;18.904;2023-11-21T17:39:38;99235.66;;;5.32;100.00
57068;BME280;43391;47.448;18.904;2023-11-21T17:48:00;99233.13;;;5.30;100.00
57068;BME280;43391;47.448;18.904;2023-11-21T17:56:20;99231.59;;;5.25;100.00
57068;BME280;43391;47.448;18.904;2023-11-21T18:04:40;99257.38;;;5.23;100.00
57068;BME280;43391;47.448;18.904;2023-11-21T18:13:00;99251.78;;;5.10;100.00
57068;BME280;43391;47.448;18.904;2023-11-21T18:21:21;99252.63;;;4.85;100.00
57068;BME280;43391;47.448;18.904;2023-11-21T18:29:41;99262.50;;;4.71;100.00
57068;BME280;43391;47.448;18.904;2023-11-21T18:38:02;99259.78;;;4.47;100.00
57068;BME280;43391;47.448;18.904;2023-11-21T18:46:22;99279.06;;;4.33;100.00
57068;BME280;43391;47.448;18.904;2023-11-21T18:54:42;99274.19;;;4.24;100.00
57068;BME280;43391;47.448;18.904;2023-11-21T19:03:03;99266.22;;;4.33;100.00
57068;BME280;43391;47.448;18.904;2023-11-21T19:11:23;99270.78;;;4.52;100.00
57068;BME280;43391;47.448;18.904;2023-11-21T19:19:43;99281.53;;;4.65;100.00
57068;BME280;43391;47.448;18.904;2023-11-21T19:28:04;99277.25;;;4.65;100.00
57068;BME280;43391;47.448;18.904;2023-11-21T19:36:25;99281.03;;;4.54;100.00
57068;BME280;43391;47.448;18.904;2023-11-21T19:44:45;99281.22;;;4.47;100.00
57068;BME280;43391;47.448;18.904;2023-11-21T19:53:05;99292.38;;;4.46;100.00
57068;BME280;43391;47.448;18.904;2023-11-21T20:01:25;99301.34;;;4.33;100.00
57068;BME280;43391;47.448;18.904;2023-11-21T20:09:46;99303.16;;;4.29;100.00
57068;BME280;43391;47.448;18.904;2023-11-21T20:18:06;99295.97;;;4.41;100.00
57068;BME280;43391;47.448;18.904;2023-11-21T20:26:26;99301.38;;;4.31;100.00
57068;BME280;43391;47.448;18.904;2023-11-21T20:34:47;99294.38;;;4.36;100.00
57068;BME280;43391;47.448;18.904;2023-11-21T20:43:07;99303.78;;;4.37;100.00
57068;BME280;43391;47.448;18.904;2023-11-21T20:51:29;99324.34;;;4.37;100.00
57068;BME280;43391;47.448;18.904;2023-11-21T20:59:49;99328.16;;;4.24;100.00
57068;BME280;43391;47.448;18.904;2023-11-21T21:08:09;99334.78;;;4.31;100.00
57068;BME280;43391;47.448;18.904;2023-11-21T21:16:31;99341.28;;;4.13;100.00
57068;BME280;43391;47.448;18.904;2023-11-21T21:24:51;99348.56;;;3.98;100.00
57068;BME280;43391;47.448;18.904;2023-11-21T21:33:13;99352.25;;;3.88;100.00
57068;BME280;43391;47.448;18.904;2023-11-21T21:41:33;99357.38;;;3.88;100.00
57068;BME280;43391;47.448;18.904;2023-11-21T21:49:53;99365.66;;;3.66;100.00
57068;BME280;43391;47.448;18.904;2023-11-21T21:58:13;99364.84;;;3.64;100.00
57068;BME280;43391;47.448;18.904;2023-11-21T22:06:34;99360.34;;;3.74;100.00
57068;BME280;43391;47.448;18.904;2023-11-21T22:14:54;99361.03;;;3.44;100.00
57068;BME280;43391;47.448;18.904;2023-11-21T22:23:14;99358.78;;;3.32;100.00
57068;BME280;43391;47.448;18.904;2023-11-21T22:31:39;99366.75;;;3.21;100.00
57068;BME280;43391;47.448;18.904;2023-11-21T22:39:59;99387.56;;;3.09;100.00
57068;BME280;43391;47.448;18.904;2023-11-21T22:48:19;99383.28;;;3.09;100.00
57068;BME280;43391;47.448;18.904;2023-11-21T22:56:39;99404.53;;;3.14;100.00
57068;BME280;43391;47.448;18.904;2023-11-21T23:05:00;99401.50;;;2.97;100.00
57068;BME280;43391;47.448;18.904;2023-11-21T23:13:21;99401.03;;;2.79;100.00
57068;BME280;43391;47.448;18.904;2023-11-21T23:21:42;99408.28;;;2.58;100.00
57068;BME280;43391;47.448;18.904;2023-11-21T23:30:03;99404.22;;;2.49;100.00
57068;BME280;43391;47.448;18.904;2023-11-21T23:38:23;99413.59;;;2.49;100.00
57068;BME280;43391;47.448;18.904;2023-11-21T23:46:43;99409.72;;;2.29;100.00
57068;BME280;43391;47.448;18.904;2023-11-21T23:55:04;99406.50;;;2.18;100.00
